createdAt,value
2023-12-09T00:00:29.130Z,10.95
2023-12-09T00:02:55.838Z,11.73
2023-12-09T00:05:22.501Z,10.00
2023-12-09T00:07:49.146Z,11.25
2023-12-09T00:10:15.774Z,12.07
2023-12-09T00:12:42.597Z,11.07
2023-12-09T00:15:11.051Z,11.27
2023-12-09T00:17:37.921Z,10.23
2023-12-09T00:20:06.408Z,11.40
2023-12-09T00:22:33.513Z,10.27
2023-12-09T00:25:00.778Z,9.52
2023-12-09T00:27:27.557Z,10.70
2023-12-09T00:29:54.360Z,9.70
2023-12-09T00:32:21.056Z,10.85
2023-12-09T00:34:47.720Z,10.23
2023-12-09T00:37:14.312Z,10.73
2023-12-09T00:39:40.957Z,10.40
2023-12-09T00:42:07.826Z,9.98
2023-12-09T00:44:34.475Z,10.38
2023-12-09T00:47:01.092Z,9.38
2023-12-09T00:49:27.801Z,10.02
2023-12-09T00:51:54.463Z,10.97
2023-12-09T00:54:21.076Z,10.57
2023-12-09T00:56:47.741Z,9.90
2023-12-09T00:59:14.354Z,10.52
2023-12-09T01:01:41.119Z,9.85
2023-12-09T01:04:07.864Z,10.27
2023-12-09T01:06:34.588Z,9.85
2023-12-09T01:09:01.381Z,11.10
2023-12-09T01:11:28.462Z,10.63
2023-12-09T01:13:55.094Z,11.52
2023-12-09T01:16:21.708Z,10.60
2023-12-09T01:18:48.425Z,11.95
2023-12-09T01:21:15.179Z,10.82
2023-12-09T01:23:41.854Z,9.38
2023-12-09T01:26:09.004Z,11.55
2023-12-09T01:28:35.589Z,9.90
2023-12-09T01:31:02.255Z,11.10
2023-12-09T01:33:28.931Z,8.70
2023-12-09T01:35:55.713Z,9.23
2023-12-09T01:38:22.382Z,11.02
2023-12-09T01:40:55.811Z,10.27
2023-12-09T01:43:23.176Z,9.75
2023-12-09T01:45:51.435Z,8.88
2023-12-09T01:48:18.880Z,9.13
2023-12-09T01:50:45.840Z,10.13
2023-12-09T01:53:12.472Z,8.60
2023-12-09T01:55:40.475Z,8.93
2023-12-09T01:58:07.077Z,9.20
2023-12-09T02:00:34.036Z,8.35
2023-12-09T02:03:00.882Z,9.07
2023-12-09T02:05:28.023Z,8.87
2023-12-09T02:07:54.665Z,8.45
2023-12-09T02:10:21.404Z,9.77
2023-12-09T02:13:04.941Z,8.77
2023-12-09T02:15:38.929Z,9.13
2023-12-09T02:18:06.670Z,8.67
2023-12-09T02:20:33.633Z,9.10
2023-12-09T02:23:13.045Z,10.57
2023-12-09T02:25:40.873Z,8.98
2023-12-09T02:28:15.237Z,9.23
2023-12-09T02:30:51.789Z,9.90
2023-12-09T02:33:19.677Z,9.43
2023-12-09T02:35:47.854Z,8.75
2023-12-09T02:38:15.246Z,8.80
2023-12-09T02:40:42.389Z,8.73
2023-12-09T02:43:09.672Z,8.97
2023-12-09T02:45:37.071Z,8.82
2023-12-09T02:48:04.971Z,8.65
2023-12-09T02:50:31.829Z,9.13
2023-12-09T02:52:58.432Z,9.32
2023-12-09T02:55:25.181Z,9.63
2023-12-09T02:57:51.863Z,9.48
2023-12-09T03:00:18.582Z,9.23
2023-12-09T03:02:45.289Z,8.30
2023-12-09T03:05:11.990Z,8.27
2023-12-09T03:07:38.667Z,9.40
2023-12-09T03:10:05.566Z,11.15
2023-12-09T03:12:32.687Z,10.55
2023-12-09T03:14:59.461Z,9.07
2023-12-09T03:17:26.106Z,9.23
2023-12-09T03:19:52.742Z,10.03
2023-12-09T03:22:19.576Z,10.18
2023-12-09T03:24:46.240Z,9.68
2023-12-09T03:27:12.907Z,9.10
2023-12-09T03:29:39.609Z,9.15
2023-12-09T03:32:06.276Z,9.30
2023-12-09T03:34:32.949Z,9.90
2023-12-09T03:36:59.670Z,10.23
2023-12-09T03:39:26.385Z,10.15
2023-12-09T03:41:53.218Z,9.38
2023-12-09T03:44:19.832Z,9.50
2023-12-09T03:46:46.437Z,8.93
2023-12-09T03:49:13.256Z,11.05
2023-12-09T03:51:40.040Z,9.85
2023-12-09T03:54:06.698Z,10.68
2023-12-09T03:56:33.574Z,9.13
2023-12-09T03:59:01.378Z,9.07
2023-12-09T04:01:28.053Z,9.98
2023-12-09T04:03:55.157Z,9.55
2023-12-09T04:06:22.540Z,8.52
2023-12-09T04:08:49.208Z,8.50
2023-12-09T04:11:15.789Z,10.45
2023-12-09T04:13:42.491Z,9.38
2023-12-09T04:16:09.660Z,9.38
2023-12-09T04:18:37.400Z,8.00
2023-12-09T04:21:04.796Z,10.37
2023-12-09T04:23:31.459Z,8.90
2023-12-09T04:25:58.054Z,8.18
2023-12-09T04:28:24.657Z,7.97
2023-12-09T04:30:51.281Z,9.77
2023-12-09T04:33:17.952Z,8.73
2023-12-09T04:35:44.627Z,8.02
2023-12-09T04:38:11.253Z,8.57
2023-12-09T04:40:37.850Z,8.52
2023-12-09T04:43:04.859Z,10.95
2023-12-09T04:45:31.515Z,8.47
2023-12-09T04:47:58.288Z,7.95
2023-12-09T04:50:25.008Z,8.05
2023-12-09T04:52:51.707Z,8.18
2023-12-09T04:55:18.565Z,7.72
2023-12-09T04:57:45.164Z,7.20
2023-12-09T05:00:12.592Z,7.57
2023-12-09T05:02:39.420Z,7.78
2023-12-09T05:05:06.163Z,7.10
2023-12-09T05:07:33.146Z,6.93
2023-12-09T05:09:59.842Z,7.80
2023-12-09T05:12:28.099Z,8.15
2023-12-09T05:14:55.111Z,9.10
2023-12-09T05:17:21.797Z,6.88
2023-12-09T05:19:48.586Z,7.68
2023-12-09T05:22:16.060Z,7.00
2023-12-09T05:24:42.952Z,7.13
2023-12-09T05:27:09.624Z,7.78
2023-12-09T05:29:36.262Z,7.25
2023-12-09T05:32:04.087Z,7.50
2023-12-09T05:34:30.930Z,7.23
2023-12-09T05:36:57.571Z,8.40
2023-12-09T05:39:24.256Z,8.63
2023-12-09T05:41:50.929Z,7.63
2023-12-09T05:44:17.538Z,8.48
2023-12-09T05:46:44.204Z,7.10
2023-12-09T05:49:10.911Z,7.22
2023-12-09T05:51:37.916Z,8.05
2023-12-09T05:54:04.598Z,6.88
2023-12-09T05:56:31.251Z,7.57
2023-12-09T05:58:57.974Z,6.80
2023-12-09T06:01:24.656Z,6.93
2023-12-09T06:03:51.319Z,6.43
2023-12-09T06:06:18.087Z,6.32
2023-12-09T06:08:44.849Z,7.72
2023-12-09T06:11:11.694Z,6.17
2023-12-09T06:13:38.405Z,8.25
2023-12-09T06:16:05.156Z,7.43
2023-12-09T06:18:31.927Z,6.07
2023-12-09T06:20:58.729Z,5.38
2023-12-09T06:23:25.420Z,5.93
2023-12-09T06:25:52.083Z,6.78
2023-12-09T06:28:18.701Z,7.68
2023-12-09T06:30:45.589Z,5.60
2023-12-09T06:33:12.356Z,6.57
2023-12-09T06:35:39.228Z,6.40
2023-12-09T06:38:05.826Z,6.97
2023-12-09T06:40:32.447Z,7.63
2023-12-09T06:42:59.082Z,5.55
2023-12-09T06:45:25.883Z,5.90
2023-12-09T06:47:55.360Z,6.60
2023-12-09T06:50:22.505Z,5.35
2023-12-09T06:52:49.460Z,5.10
2023-12-09T06:55:16.219Z,6.10
2023-12-09T06:57:42.953Z,5.13
2023-12-09T07:00:10.040Z,5.03
2023-12-09T07:02:45.039Z,5.18
2023-12-09T07:05:20.168Z,5.93
2023-12-09T07:07:47.060Z,4.80
2023-12-09T07:10:14.806Z,4.55
2023-12-09T07:12:42.094Z,4.33
2023-12-09T07:15:09.478Z,5.68
2023-12-09T07:17:36.305Z,4.10
2023-12-09T07:20:06.988Z,4.68
2023-12-09T07:22:33.744Z,4.95
2023-12-09T07:25:00.350Z,4.00
2023-12-09T07:27:26.996Z,3.60
2023-12-09T07:29:53.647Z,4.28
2023-12-09T07:32:20.326Z,4.13
2023-12-09T07:34:47.117Z,3.78
2023-12-09T07:37:15.888Z,3.80
2023-12-09T07:39:43.414Z,3.90
2023-12-09T07:42:10.108Z,3.55
2023-12-09T07:44:36.904Z,3.10
2023-12-09T07:47:03.511Z,3.45
2023-12-09T07:49:30.214Z,3.87
2023-12-09T07:51:56.852Z,4.28
2023-12-09T07:54:23.465Z,3.70
2023-12-09T07:56:50.087Z,3.75
2023-12-09T07:59:16.727Z,3.05
2023-12-09T08:01:43.365Z,3.20
2023-12-09T08:04:10.529Z,3.42
2023-12-09T08:06:37.521Z,3.65
2023-12-09T08:09:04.379Z,3.25
2023-12-09T08:11:31.176Z,3.13
2023-12-09T08:13:57.881Z,2.70
2023-12-09T08:16:24.526Z,2.65
2023-12-09T08:18:51.343Z,2.83
2023-12-09T08:21:18.106Z,4.22
2023-12-09T08:23:44.772Z,2.75
2023-12-09T08:26:17.003Z,3.03
2023-12-09T08:28:43.677Z,2.88
2023-12-09T08:31:10.316Z,3.05
2023-12-09T08:33:37.114Z,2.83
2023-12-09T08:36:03.999Z,2.83
2023-12-09T08:38:30.724Z,2.90
2023-12-09T08:40:57.356Z,2.70
2023-12-09T08:43:24.613Z,2.55
2023-12-09T08:45:51.314Z,2.85
2023-12-09T08:48:19.087Z,2.25
2023-12-09T08:50:45.878Z,2.57
2023-12-09T08:53:13.498Z,3.05
2023-12-09T08:55:40.123Z,2.80
2023-12-09T08:58:06.773Z,2.10
2023-12-09T09:00:33.414Z,2.10
2023-12-09T09:03:00.226Z,1.60
2023-12-09T09:05:27.067Z,1.63
2023-12-09T09:07:53.842Z,1.77
2023-12-09T09:10:20.706Z,1.92
2023-12-09T09:12:48.410Z,1.80
2023-12-09T09:15:17.223Z,2.37
2023-12-09T09:17:43.978Z,1.50
2023-12-09T09:20:11.819Z,2.00
2023-12-09T09:22:38.776Z,1.40
2023-12-09T09:25:05.919Z,2.10
2023-12-09T09:27:32.654Z,1.80
2023-12-09T09:29:59.439Z,1.92
2023-12-09T09:32:26.526Z,1.90
2023-12-09T09:34:53.711Z,1.60
2023-12-09T09:37:20.515Z,1.52
2023-12-09T09:39:48.274Z,2.60
2023-12-09T09:42:24.099Z,1.67
2023-12-09T09:45:22.144Z,2.25
2023-12-09T09:47:50.505Z,1.85
2023-12-09T09:50:20.340Z,2.08
2023-12-09T09:52:48.224Z,1.70
2023-12-09T09:55:15.802Z,1.70
2023-12-09T09:57:43.906Z,1.48
2023-12-09T10:00:15.380Z,1.95
2023-12-09T10:02:46.868Z,2.03
2023-12-09T10:05:14.938Z,1.50
2023-12-09T10:07:41.642Z,1.80
2023-12-09T10:10:08.770Z,1.17
2023-12-09T10:12:38.543Z,2.13
2023-12-09T10:15:06.092Z,1.33
2023-12-09T10:17:32.986Z,1.40
2023-12-09T10:20:00.062Z,1.10
2023-12-09T10:22:27.660Z,1.45
2023-12-09T10:24:55.405Z,1.25
2023-12-09T10:27:26.376Z,1.50
2023-12-09T10:29:53.753Z,1.43
2023-12-09T10:32:24.041Z,1.83
2023-12-09T10:34:51.596Z,1.35
2023-12-09T10:37:18.751Z,1.80
2023-12-09T10:39:46.730Z,1.60
2023-12-09T10:42:13.767Z,2.08
2023-12-09T10:44:40.976Z,1.25
2023-12-09T10:47:08.250Z,1.40
2023-12-09T10:49:35.629Z,1.13
2023-12-09T10:52:02.764Z,1.40
2023-12-09T10:54:29.491Z,1.10
2023-12-09T10:56:56.172Z,0.90
2023-12-09T10:59:22.798Z,1.30
2023-12-09T11:01:49.465Z,1.40
2023-12-09T11:04:16.541Z,1.63
2023-12-09T11:06:46.196Z,1.50
2023-12-09T11:09:15.106Z,1.60
2023-12-09T11:11:44.767Z,1.50
2023-12-09T11:14:11.680Z,1.88
2023-12-09T11:16:43.457Z,1.38
2023-12-09T11:19:17.948Z,1.30
2023-12-09T11:21:48.601Z,1.30
2023-12-09T11:24:16.822Z,1.65
2023-12-09T11:26:48.538Z,1.20
2023-12-09T11:29:18.190Z,1.80
2023-12-09T11:31:50.430Z,1.60
2023-12-09T11:34:19.544Z,1.17
2023-12-09T11:36:47.530Z,1.40
2023-12-09T11:39:19.073Z,1.10
2023-12-09T11:41:46.472Z,1.30
2023-12-09T11:44:14.404Z,1.23
2023-12-09T11:46:41.390Z,1.65
2023-12-09T11:49:09.036Z,1.40
2023-12-09T11:51:36.677Z,1.30
2023-12-09T11:54:05.394Z,1.00
2023-12-09T11:56:32.545Z,1.20
2023-12-09T11:58:59.175Z,1.40
2023-12-09T12:01:26.730Z,1.00
2023-12-09T12:03:53.728Z,3.03
2023-12-09T12:06:22.722Z,1.75
2023-12-09T12:08:50.542Z,1.10
2023-12-09T12:11:18.304Z,1.52
2023-12-09T12:13:45.382Z,1.10
2023-12-09T12:16:12.908Z,1.38
2023-12-09T12:18:39.840Z,1.80
2023-12-09T12:21:07.128Z,1.60
2023-12-09T12:23:34.365Z,2.17
2023-12-09T12:26:01.055Z,1.60
2023-12-09T12:28:27.799Z,1.50
2023-12-09T12:31:05.453Z,1.27
2023-12-09T12:33:32.606Z,1.67
2023-12-09T12:36:00.366Z,1.90
2023-12-09T12:38:27.709Z,1.38
2023-12-09T12:40:55.216Z,2.00
2023-12-09T12:43:22.162Z,1.58
2023-12-09T12:45:53.106Z,1.93
2023-12-09T12:48:21.168Z,1.60
2023-12-09T12:50:51.347Z,1.25
2023-12-09T12:53:19.116Z,1.80
2023-12-09T12:55:45.930Z,2.00
2023-12-09T12:58:12.540Z,4.13
2023-12-09T13:00:40.324Z,1.73
2023-12-09T13:03:08.402Z,1.83
2023-12-09T13:05:35.937Z,1.70
2023-12-09T13:08:02.812Z,1.50
2023-12-09T13:10:29.405Z,1.50
2023-12-09T13:12:56.081Z,2.20
2023-12-09T13:15:23.009Z,2.30
2023-12-09T13:17:49.799Z,1.40
2023-12-09T13:20:16.528Z,2.00
2023-12-09T13:22:43.151Z,2.10
2023-12-09T13:25:10.802Z,1.63
2023-12-09T13:27:38.479Z,1.83
2023-12-09T13:30:08.032Z,1.73
2023-12-09T13:32:38.321Z,3.13
2023-12-09T13:35:06.704Z,1.30
2023-12-09T13:37:34.054Z,1.52
2023-12-09T13:40:01.096Z,1.42
2023-12-09T13:42:28.775Z,1.25
2023-12-09T13:44:55.658Z,1.30
2023-12-09T13:47:22.287Z,1.60
2023-12-09T13:49:49.181Z,2.83
2023-12-09T13:52:17.247Z,2.00
2023-12-09T13:54:44.530Z,2.13
2023-12-09T13:57:11.547Z,1.80
2023-12-09T13:59:38.385Z,1.37
2023-12-09T14:02:05.140Z,2.03
2023-12-09T14:04:31.835Z,2.20
2023-12-09T14:06:58.655Z,1.75
2023-12-09T14:09:25.293Z,4.75
2023-12-09T14:11:52.030Z,1.93
2023-12-09T14:14:18.672Z,1.85
2023-12-09T14:16:45.384Z,4.60
2023-12-09T14:19:12.266Z,2.30
2023-12-09T14:21:39.412Z,2.13
2023-12-09T14:24:06.703Z,4.20
2023-12-09T14:26:35.636Z,2.00
2023-12-09T14:29:02.599Z,3.65
2023-12-09T14:31:29.245Z,5.28
2023-12-09T14:33:56.452Z,4.60
2023-12-09T14:36:23.402Z,1.70
2023-12-09T14:38:50.420Z,1.80
2023-12-09T14:41:17.065Z,2.00
2023-12-09T14:43:45.667Z,1.80
2023-12-09T14:46:13.350Z,2.22
2023-12-09T14:48:40.218Z,3.47
2023-12-09T14:51:07.788Z,2.47
2023-12-09T14:53:34.653Z,1.75
2023-12-09T14:56:01.938Z,1.20
2023-12-09T14:58:28.714Z,1.67
2023-12-09T15:00:55.471Z,1.80
2023-12-09T15:03:22.281Z,1.25
2023-12-09T15:05:49.134Z,1.35
2023-12-09T15:08:15.781Z,1.50
2023-12-09T15:10:42.384Z,0.95
2023-12-09T15:13:09.013Z,1.27
2023-12-09T15:15:35.650Z,1.05
2023-12-09T15:18:02.529Z,2.03
2023-12-09T15:20:29.240Z,2.42
2023-12-09T15:22:55.881Z,2.03
2023-12-09T15:25:22.525Z,2.47
2023-12-09T15:27:49.613Z,1.90
2023-12-09T15:30:16.489Z,2.00
2023-12-09T15:32:45.460Z,2.20
2023-12-09T15:35:12.485Z,2.13
2023-12-09T15:37:39.106Z,1.70
2023-12-09T15:40:10.299Z,2.83
2023-12-09T15:42:37.539Z,2.58
2023-12-09T15:45:05.775Z,3.22
2023-12-09T15:47:32.488Z,1.90
2023-12-09T15:49:59.168Z,3.57
2023-12-09T15:52:26.150Z,2.40
2023-12-09T15:54:53.042Z,2.28
2023-12-09T15:57:20.189Z,3.80
2023-12-09T15:59:47.872Z,7.57
2023-12-09T16:02:14.841Z,3.20
2023-12-09T16:04:41.697Z,4.45
2023-12-09T16:07:08.342Z,4.28
2023-12-09T16:09:40.727Z,4.45
2023-12-09T16:12:08.209Z,3.70
2023-12-09T16:14:36.177Z,3.10
2023-12-09T16:17:03.305Z,3.85
2023-12-09T16:19:30.036Z,3.20
2023-12-09T16:21:56.841Z,2.78
2023-12-09T16:24:28.254Z,3.78
2023-12-09T16:26:56.934Z,3.87
2023-12-09T16:29:24.188Z,3.08
2023-12-09T16:31:50.960Z,3.85
2023-12-09T16:34:17.830Z,3.10
2023-12-09T16:36:44.701Z,4.20
2023-12-09T16:39:14.095Z,3.43
2023-12-09T16:41:41.227Z,5.00
2023-12-09T16:44:11.147Z,4.00
2023-12-09T16:46:39.029Z,4.07
2023-12-09T16:49:06.061Z,3.80
2023-12-09T16:51:32.732Z,8.52
2023-12-09T16:53:59.377Z,5.13
2023-12-09T16:56:26.680Z,3.60
2023-12-09T16:58:53.436Z,4.80
2023-12-09T17:01:20.093Z,4.85
2023-12-09T17:03:47.419Z,4.47
2023-12-09T17:06:14.601Z,5.00
2023-12-09T17:08:41.432Z,4.65
2023-12-09T17:11:08.127Z,4.43
2023-12-09T17:13:34.749Z,4.70
2023-12-09T17:16:01.417Z,4.30
2023-12-09T17:18:28.333Z,3.67
2023-12-09T17:20:55.354Z,4.60
2023-12-09T17:23:22.025Z,3.45
2023-12-09T17:25:48.675Z,3.58
2023-12-09T17:28:15.328Z,3.80
2023-12-09T17:30:42.033Z,4.13
2023-12-09T17:33:09.217Z,5.07
2023-12-09T17:35:35.989Z,3.38
2023-12-09T17:38:03.264Z,3.60
2023-12-09T17:40:29.897Z,4.23
2023-12-09T17:42:56.718Z,3.47
2023-12-09T17:45:23.713Z,3.90
2023-12-09T17:47:50.445Z,3.60
2023-12-09T17:50:17.516Z,3.83
2023-12-09T17:52:44.356Z,4.50
2023-12-09T17:55:11.026Z,4.03
2023-12-09T17:57:37.800Z,5.38
2023-12-09T18:00:05.289Z,4.47
2023-12-09T18:02:32.086Z,4.32
2023-12-09T18:04:58.814Z,4.53
2023-12-09T18:07:26.306Z,3.53
2023-12-09T18:09:52.971Z,4.13
2023-12-09T18:12:19.587Z,4.30
2023-12-09T18:14:46.661Z,3.53
2023-12-09T18:17:14.191Z,2.97
2023-12-09T18:19:41.067Z,3.42
2023-12-09T18:22:07.815Z,3.47
2023-12-09T18:24:34.637Z,3.63
2023-12-09T18:27:01.483Z,3.60
2023-12-09T18:29:28.732Z,3.40
2023-12-09T18:31:55.398Z,5.32
2023-12-09T18:34:22.069Z,3.75
2023-12-09T18:36:49.060Z,4.63
2023-12-09T18:39:15.811Z,5.30
2023-12-09T18:41:42.465Z,5.23
2023-12-09T18:44:09.102Z,4.80
2023-12-09T18:46:35.787Z,6.80
2023-12-09T18:49:02.518Z,6.88
2023-12-09T18:51:29.202Z,5.50
2023-12-09T18:53:55.809Z,4.67
2023-12-09T18:56:23.631Z,4.63
2023-12-09T18:58:50.197Z,4.85
2023-12-09T19:01:16.942Z,4.90
2023-12-09T19:03:43.734Z,5.55
2023-12-09T19:06:10.951Z,5.30
2023-12-09T19:08:38.763Z,6.10
2023-12-09T19:11:05.770Z,5.20
2023-12-09T19:13:32.731Z,6.05
2023-12-09T19:15:59.385Z,6.75
2023-12-09T19:18:26.489Z,8.03
2023-12-09T19:20:53.197Z,7.18
2023-12-09T19:23:19.869Z,7.35
2023-12-09T19:25:46.644Z,7.47
2023-12-09T19:28:13.313Z,7.18
2023-12-09T19:30:39.935Z,7.33
2023-12-09T19:33:06.763Z,8.38
2023-12-09T19:35:33.485Z,6.95
2023-12-09T19:38:00.187Z,6.90
2023-12-09T19:40:27.217Z,6.70
2023-12-09T19:42:56.556Z,5.37
2023-12-09T19:45:26.542Z,6.10
2023-12-09T19:47:57.192Z,4.20
2023-12-09T19:50:25.023Z,3.20
2023-12-09T19:52:52.053Z,3.10
2023-12-09T19:55:18.702Z,2.97
2023-12-09T19:57:45.687Z,3.40
2023-12-09T20:00:15.742Z,3.33
2023-12-09T20:02:42.942Z,9.35
2023-12-09T20:05:09.680Z,3.80
2023-12-09T20:07:36.393Z,2.17
2023-12-09T20:10:03.209Z,2.88
2023-12-09T20:12:30.037Z,2.42
2023-12-09T20:14:56.802Z,3.38
2023-12-09T20:17:23.801Z,2.75
2023-12-09T20:19:50.494Z,2.10
2023-12-09T20:22:17.481Z,3.10
2023-12-09T20:24:45.093Z,2.88
2023-12-09T20:27:12.086Z,2.40
2023-12-09T20:29:38.760Z,3.20
2023-12-09T20:32:05.820Z,2.13
2023-12-09T20:34:32.663Z,3.60
2023-12-09T20:37:00.438Z,2.22
2023-12-09T20:39:27.126Z,2.50
2023-12-09T20:41:54.106Z,3.15
2023-12-09T20:44:20.751Z,2.40
2023-12-09T20:46:47.619Z,2.95
2023-12-09T20:49:17.915Z,3.17
2023-12-09T20:51:45.849Z,2.70
2023-12-09T20:54:12.964Z,1.92
2023-12-09T20:56:39.817Z,2.10
2023-12-09T20:59:08.227Z,2.38
2023-12-09T21:01:42.697Z,2.30
2023-12-09T21:04:09.444Z,2.83
2023-12-09T21:06:36.840Z,2.50
2023-12-09T21:09:05.293Z,2.93
2023-12-09T21:11:35.019Z,2.53
2023-12-09T21:14:02.340Z,3.05
2023-12-09T21:16:28.940Z,2.03
2023-12-09T21:18:56.180Z,1.75
2023-12-09T21:21:23.081Z,2.03
2023-12-09T21:23:50.206Z,2.25
2023-12-09T21:26:17.137Z,1.98
2023-12-09T21:28:43.761Z,3.10
2023-12-09T21:31:13.913Z,3.90
2023-12-09T21:33:41.236Z,2.40
2023-12-09T21:36:17.020Z,2.00
2023-12-09T21:38:44.070Z,2.22
2023-12-09T21:41:19.113Z,2.20
2023-12-09T21:43:46.231Z,2.50
2023-12-09T21:46:13.031Z,2.60
2023-12-09T21:48:39.759Z,1.58
2023-12-09T21:51:07.080Z,3.17
2023-12-09T21:53:34.004Z,2.83
2023-12-09T21:56:00.702Z,2.83
2023-12-09T21:58:28.423Z,2.33
2023-12-09T22:00:55.127Z,2.47
2023-12-09T22:03:21.876Z,3.58
2023-12-09T22:05:48.535Z,1.88
2023-12-09T22:08:15.161Z,1.55
2023-12-09T22:10:41.831Z,2.30
2023-12-09T22:13:08.553Z,2.40
2023-12-09T22:15:37.411Z,1.98
2023-12-09T22:18:04.427Z,2.78
2023-12-09T22:20:32.029Z,2.17
2023-12-09T22:22:58.964Z,1.87
2023-12-09T22:25:25.759Z,1.77
2023-12-09T22:27:52.405Z,2.58
2023-12-09T22:30:19.274Z,2.38
2023-12-09T22:32:45.975Z,2.30
2023-12-09T22:35:12.573Z,1.90
2023-12-09T22:37:40.767Z,3.35
2023-12-09T22:40:08.681Z,1.80
2023-12-09T22:42:36.685Z,1.85
2023-12-09T22:45:04.683Z,2.80
2023-12-09T22:47:32.138Z,2.13
2023-12-09T22:49:58.837Z,2.28
2023-12-09T22:52:25.803Z,3.22
2023-12-09T22:54:53.763Z,2.45
2023-12-09T22:57:20.418Z,2.00
2023-12-09T22:59:47.055Z,3.17
2023-12-09T23:02:13.662Z,2.05
2023-12-09T23:04:40.404Z,2.35
2023-12-09T23:07:07.137Z,2.83
2023-12-09T23:09:33.843Z,2.10
2023-12-09T23:12:00.490Z,3.67
2023-12-09T23:14:27.148Z,3.03
2023-12-09T23:16:53.749Z,2.28
2023-12-09T23:19:20.497Z,2.60
2023-12-09T23:21:47.205Z,3.08
2023-12-09T23:24:13.897Z,2.10
2023-12-09T23:26:40.597Z,3.20
2023-12-09T23:29:08.598Z,2.92
2023-12-09T23:31:41.046Z,2.58
2023-12-09T23:34:08.952Z,2.63
2023-12-09T23:36:36.022Z,2.23
2023-12-09T23:39:02.758Z,3.33
2023-12-09T23:41:29.740Z,3.05
2023-12-09T23:43:56.514Z,3.22
2023-12-09T23:46:23.343Z,2.63
2023-12-09T23:48:50.133Z,2.97
2023-12-09T23:51:16.930Z,2.78
2023-12-09T23:53:43.623Z,2.10
2023-12-09T23:56:10.317Z,2.63
2023-12-09T23:58:37.076Z,4.00
